Time;durP1;ratioP1;P1;durP2;ratioP2;P2;SDS_P1;SDS_P2;PMS_P1;PMS_P2;Temp;Humidity;BMP_temperature;BMP_pressure;BME280_temperature;BME280_humidity;BME280_pressure;Samples;Min_cycle;Max_cycle;Signal;HPM_P1;HPM_P2
2021/06/08 00:03:13;;;;;;;21.48;16.90;;;;;;;16.28;100.00;100762.00;20892100;28;20063;-76
2021/06/08 00:13:16;;;;;;;21.50;17.58;;;;;;;16.29;100.00;100760.22;20892264;28;20037;-75
2021/06/08 00:23:17;;;;;;;24.25;18.13;;;;;;;16.30;100.00;100769.84;20820119;28;20041;-76
2021/06/08 00:33:19;;;;;;;22.75;18.00;;;;;;;16.32;100.00;100775.81;20857913;28;20049;-76
2021/06/08 00:43:24;;;;;;;20.40;15.45;;;;;;;16.25;100.00;100778.91;20877571;28;20057;-76
2021/06/08 00:53:26;;;;;;;21.83;17.73;;;;;;;16.27;100.00;100781.44;20879413;28;20194;-77
2021/06/08 01:03:28;;;;;;;25.33;18.25;;;;;;;16.34;100.00;100776.56;20895524;28;20041;-77
2021/06/08 01:13:30;;;;;;;24.65;18.58;;;;;;;16.24;100.00;100774.59;20906582;28;20041;-76
2021/06/08 01:23:35;;;;;;;27.48;19.92;;;;;;;16.17;100.00;100777.78;20875479;28;20041;-76
2021/06/08 01:33:42;;;;;;;33.63;21.67;;;;;;;16.11;100.00;100768.50;20901398;28;20107;-77
2021/06/08 01:43:45;;;;;;;28.23;21.90;;;;;;;15.99;100.00;100774.66;20864781;28;20045;-76
2021/06/08 01:54:08;;;;;;;28.58;21.48;;;;;;;15.96;100.00;100772.22;20889266;28;20102;-76
2021/06/08 02:04:25;;;;;;;27.75;21.02;;;;;;;15.88;100.00;100776.34;20855566;28;20049;-76
2021/06/08 02:14:38;;;;;;;30.88;23.20;;;;;;;15.92;100.00;100785.75;20876861;28;20098;-77
2021/06/08 02:24:43;;;;;;;31.50;22.98;;;;;;;15.93;100.00;100785.66;20900829;28;20037;-77
2021/06/08 02:34:45;;;;;;;29.88;23.77;;;;;;;15.92;100.00;100786.59;20876347;28;20041;-76
2021/06/08 02:44:52;;;;;;;34.92;26.52;;;;;;;15.79;100.00;100789.25;20890531;28;20041;-76
2021/06/08 03:06:21;;;;;;;34.05;24.52;;;;;;;15.71;100.00;100796.00;20896077;28;20406;-77
2021/06/08 03:16:27;;;;;;;29.92;22.73;;;;;;;15.68;100.00;100806.78;20850196;28;20049;-76
2021/06/08 03:26:35;;;;;;;35.05;24.80;;;;;;;15.68;100.00;100796.22;20874572;28;20077;-77
2021/06/08 03:36:37;;;;;;;35.63;25.80;;;;;;;15.74;100.00;100806.38;20893311;28;20138;-77
2021/06/08 03:46:39;;;;;;;33.85;24.23;;;;;;;15.65;100.00;100793.78;20895053;28;20456;-76
2021/06/08 03:56:46;;;;;;;40.38;26.95;;;;;;;15.63;100.00;100806.25;20876723;28;20045;-77
2021/06/08 04:06:49;;;;;;;35.72;25.75;;;;;;;15.63;100.00;100814.16;20848538;28;20103;-77
2021/06/08 04:16:50;;;;;;;32.20;25.75;;;;;;;15.61;100.00;100816.06;20864738;28;20095;-77
2021/06/08 04:26:52;;;;;;;34.58;25.45;;;;;;;15.80;100.00;100822.59;20850227;28;20045;-76
2021/06/08 04:36:54;;;;;;;33.47;23.70;;;;;;;15.89;100.00;100829.06;20880704;28;20403;-77
2021/06/08 04:46:56;;;;;;;29.73;24.10;;;;;;;15.97;100.00;100832.00;20886074;28;20037;-76
2021/06/08 04:56:58;;;;;;;31.58;24.77;;;;;;;16.07;100.00;100824.28;20837947;28;20045;-77
2021/06/08 05:07:03;;;;;;;34.58;24.30;;;;;;;16.31;100.00;100824.31;20881790;28;20091;-77
2021/06/08 05:17:06;;;;;;;33.13;22.55;;;;;;;16.50;100.00;100827.38;20879690;28;20045;-77
2021/06/08 05:27:09;;;;;;;30.73;22.40;;;;;;;16.57;100.00;100833.88;20877498;28;20057;-77
2021/06/08 05:37:14;;;;;;;29.50;21.37;;;;;;;16.70;100.00;100842.66;20865320;28;20044;-77
2021/06/08 05:47:16;;;;;;;25.90;20.27;;;;;;;16.78;100.00;100842.94;20899222;28;20178;-77
2021/06/08 05:57:18;;;;;;;26.73;19.85;;;;;;;16.78;100.00;100848.22;20912839;22;20044;-71
2021/06/08 06:07:19;;;;;;;29.50;20.88;;;;;;;17.14;100.00;100851.75;20872204;28;20056;-70
2021/06/08 06:17:22;;;;;;;24.83;19.25;;;;;;;17.35;100.00;100852.81;20871358;28;20107;-71
2021/06/08 06:27:25;;;;;;;26.95;19.23;;;;;;;17.35;100.00;100855.47;20880052;28;20483;-71
2021/06/08 06:37:27;;;;;;;25.27;18.67;;;;;;;17.49;100.00;100863.19;20885084;28;20448;-71
2021/06/08 06:47:28;;;;;;;25.58;19.25;;;;;;;17.69;100.00;100867.84;20880369;28;20044;-72
2021/06/08 06:57:31;;;;;;;24.58;18.88;;;;;;;17.87;100.00;100876.22;20876464;28;20045;-71
2021/06/08 07:07:36;;;;;;;26.63;20.48;;;;;;;18.14;100.00;100884.66;20870777;28;20041;-72
2021/06/08 07:17:39;;;;;;;23.65;19.08;;;;;;;18.19;97.48;100878.97;20880343;28;20405;-71
2021/06/08 07:27:41;;;;;;;24.33;17.70;;;;;;;18.33;99.07;100873.47;20870401;28;20049;-71
2021/06/08 07:37:48;;;;;;;25.75;18.88;;;;;;;19.20;91.80;100872.56;20881352;28;20063;-71
2021/06/08 07:47:56;;;;;;;28.02;19.17;;;;;;;19.05;92.01;100876.47;20885452;28;20098;-72
2021/06/08 07:57:58;;;;;;;23.42;18.33;;;;;;;19.25;89.69;100870.38;20880534;28;20410;-71
2021/06/08 08:08:01;;;;;;;26.30;18.60;;;;;;;19.27;90.25;100873.75;20881005;28;20037;-72
2021/06/08 08:18:04;;;;;;;23.52;18.77;;;;;;;20.10;84.85;100873.78;20892351;28;20183;-72
2021/06/08 08:28:07;;;;;;;21.00;17.58;;;;;;;20.72;82.81;100872.78;20881218;28;20049;-71
2021/06/08 08:38:09;;;;;;;21.38;17.08;;;;;;;20.47;83.66;100866.94;20896530;28;20072;-72
2021/06/08 08:48:12;;;;;;;19.25;15.10;;;;;;;20.70;82.82;100864.94;20891272;28;20479;-72
2021/06/08 08:58:16;;;;;;;22.83;18.27;;;;;;;20.96;81.43;100857.25;20865819;28;20091;-72
2021/06/08 09:08:18;;;;;;;23.50;17.60;;;;;;;21.62;78.10;100852.94;20886758;28;20041;-73
2021/06/08 09:18:23;;;;;;;24.95;17.63;;;;;;;21.07;80.74;100845.66;20870351;28;20045;-72
2021/06/08 09:28:27;;;;;;;21.92;16.52;;;;;;;21.86;80.31;100846.28;20894069;28;20048;-73
2021/06/08 09:38:35;;;;;;;22.15;18.83;;;;;;;21.43;76.97;100862.78;20885577;28;20095;-73
2021/06/08 09:48:49;;;;;;;25.10;20.13;;;;;;;21.23;78.36;100861.94;20848496;28;20049;-73
2021/06/08 09:58:52;;;;;;;25.00;18.70;;;;;;;21.37;77.99;100863.34;20875508;28;20045;-72
2021/06/08 10:08:59;;;;;;;22.50;16.83;;;;;;;21.59;79.89;100857.69;20871064;28;20094;-74
2021/06/08 10:19:03;;;;;;;25.17;18.58;;;;;;;21.57;77.52;100868.50;20875291;28;20100;-74
2021/06/08 10:29:10;;;;;;;20.17;16.03;;;;;;;21.95;77.13;100854.28;20891127;28;20094;-73
2021/06/08 10:39:14;;;;;;;22.58;18.83;;;;;;;21.91;75.09;100852.00;20892865;28;20102;-72
2021/06/08 10:49:31;;;;;;;21.85;18.15;;;;;;;22.17;75.41;100853.91;20833993;28;20099;-74
2021/06/08 10:59:37;;;;;;;23.55;18.48;;;;;;;21.86;74.39;100848.94;20854408;28;20392;-72
2021/06/08 11:09:39;;;;;;;26.98;18.85;;;;;;;22.49;72.51;100847.31;20889967;28;20037;-73
2021/06/08 11:19:44;;;;;;;23.88;19.70;;;;;;;22.66;71.19;100848.31;20865269;28;20060;-73
2021/06/08 11:29:55;;;;;;;22.73;16.50;;;;;;;22.43;73.85;100839.91;20880552;28;20084;-73
2021/06/08 11:39:57;;;;;;;22.75;18.60;;;;;;;22.51;74.57;100834.66;20863110;28;20099;-73
2021/06/08 11:49:59;;;;;;;26.23;20.33;;;;;;;22.67;72.75;100821.50;20871965;28;20505;-72
2021/06/08 12:00:02;;;;;;;20.65;17.95;;;;;;;23.69;68.00;100822.78;20873423;28;20107;-72
2021/06/08 12:10:05;;;;;;;20.10;16.67;;;;;;;24.46;67.60;100813.81;20862884;28;20049;-72
2021/06/08 12:20:09;;;;;;;21.33;19.00;;;;;;;23.81;64.50;100807.31;20869764;28;20046;-72
2021/06/08 12:30:22;;;;;;;22.58;19.42;;;;;;;23.55;64.16;100793.97;20871007;28;20633;-72
2021/06/08 12:40:23;;;;;;;24.90;21.08;;;;;;;23.49;63.73;100789.22;20871259;28;20539;-72
2021/06/08 12:50:35;;;;;;;23.88;21.30;;;;;;;23.41;64.43;100778.47;20878719;28;20483;-72
2021/06/08 13:00:36;;;;;;;26.00;20.10;;;;;;;23.90;62.86;100770.75;20889864;28;20148;-73
2021/06/08 13:10:39;;;;;;;22.08;19.30;;;;;;;24.06;61.80;100760.13;20899558;28;20045;-73
2021/06/08 13:20:46;;;;;;;24.80;18.05;;;;;;;24.37;61.93;100753.25;20892639;28;21042;-72
2021/06/08 13:30:47;;;;;;;23.60;19.48;;;;;;;24.21;61.72;100753.19;20876424;28;20051;-73
2021/06/08 13:40:50;;;;;;;22.00;16.50;;;;;;;24.11;63.00;100755.97;20862683;28;20099;-72
2021/06/08 13:51:11;;;;;;;21.77;18.85;;;;;;;24.06;61.54;100750.28;20884715;28;20045;-73
2021/06/08 14:01:14;;;;;;;21.23;18.20;;;;;;;24.19;62.24;100734.63;20896756;28;20045;-73
2021/06/08 14:11:16;;;;;;;;;;;;;;;23.94;63.24;100727.47;20884246;28;20095;-72
2021/06/08 14:21:18;;;;;;;21.63;17.20;;;;;;;23.94;62.93;100734.66;20869800;28;19920;-72
2021/06/08 14:31:20;;;;;;;20.55;17.00;;;;;;;23.99;60.10;100719.81;20901247;28;20490;-72
2021/06/08 14:41:22;;;;;;;18.38;16.38;;;;;;;24.73;58.52;100723.53;20881557;28;20415;-74
2021/06/08 14:51:24;;;;;;;18.05;15.25;;;;;;;23.88;60.20;100701.38;20823248;28;20072;-73
2021/06/08 15:01:25;;;;;;;17.25;14.15;;;;;;;24.51;58.07;100704.44;20863370;28;20045;-73
2021/06/08 15:11:27;;;;;;;18.73;14.82;;;;;;;23.84;60.13;100697.38;20903765;28;20083;-73
2021/06/08 15:21:29;;;;;;;16.05;13.00;;;;;;;24.21;58.79;100686.31;20901397;28;20044;-72
2021/06/08 15:31:32;;;;;;;16.70;13.73;;;;;;;24.91;57.82;100678.69;20893556;28;20045;-73
2021/06/08 15:41:35;;;;;;;;;;;;;;;24.16;59.21;100673.41;20902058;28;20045;-73
2021/06/08 15:51:37;;;;;;;17.33;13.90;;;;;;;24.08;60.30;100673.38;20881540;28;20349;-74
2021/06/08 16:01:39;;;;;;;17.52;12.88;;;;;;;24.46;58.48;100677.31;20845279;28;20072;-74
2021/06/08 16:11:41;;;;;;;20.45;14.20;;;;;;;23.78;61.58;100681.97;20861013;28;20099;-74
2021/06/08 16:21:44;;;;;;;18.67;13.98;;;;;;;23.56;64.60;100667.34;20879587;28;20041;-74
2021/06/08 16:31:46;;;;;;;15.70;13.38;;;;;;;23.65;64.24;100663.72;20874699;28;20037;-75
2021/06/08 16:41:47;;;;;;;17.92;13.25;;;;;;;23.50;65.28;100672.50;20890300;28;20064;-75
2021/06/08 17:01:51;;;;;;;15.82;14.13;;;;;;;23.19;67.98;100685.47;20879631;28;20068;-74
2021/06/08 17:11:52;;;;;;;18.20;14.85;;;;;;;23.00;68.70;100682.03;20851587;28;20088;-74
2021/06/08 17:21:55;;;;;;;16.63;14.63;;;;;;;22.82;69.73;100673.19;20854050;28;20045;-74
2021/06/08 17:31:57;;;;;;;17.15;15.30;;;;;;;22.92;70.50;100684.63;20880187;28;20041;-74
2021/06/08 17:42:00;;;;;;;19.52;14.93;;;;;;;22.67;71.57;100696.06;20851568;28;20418;-74
2021/06/08 17:52:02;;;;;;;11.57;8.85;;;;;;;22.25;64.32;100692.34;20878898;28;20049;-74
2021/06/08 18:02:04;;;;;;;16.77;12.80;;;;;;;21.81;70.68;100705.47;20877023;28;20103;-74
2021/06/08 18:12:07;;;;;;;17.67;14.45;;;;;;;21.47;80.06;100689.22;20890669;28;20041;-73
2021/06/08 18:22:10;;;;;;;19.52;15.77;;;;;;;21.15;88.34;100697.56;20907073;28;20482;-70
2021/06/08 18:32:11;;;;;;;23.05;17.77;;;;;;;21.04;98.71;100716.31;20866128;28;20418;-71
2021/06/08 18:42:13;;;;;;;24.63;18.67;;;;;;;20.71;100.00;100714.13;20856692;28;20099;-70
2021/06/08 18:52:15;;;;;;;16.33;13.02;;;;;;;19.52;98.64;100772.50;20909672;28;20044;-70
2021/06/08 19:02:17;;;;;;;24.58;10.55;;;;;;;16.22;100.00;100839.03;20908377;28;20048;-72
2021/06/08 19:12:19;;;;;;;24.70;19.20;;;;;;;-141.72;100.00;61974.41;20902380;28;20111;-71
2021/06/08 19:22:21;;;;;;;33.30;25.20;;;;;;;-141.72;100.00;61974.41;20850271;28;20048;-71
2021/06/08 19:32:22;;;;;;;24.70;18.27;;;;;;;-141.72;100.00;61974.41;20891134;28;20453;-71
2021/06/08 19:50:19;;;;;;;28.30;20.42;;;;;;;;;;20956328;27;20351;-70
2021/06/08 20:00:21;;;;;;;34.30;25.38;;;;;;;;;;20847739;28;55741;-69
2021/06/08 20:10:23;;;;;;;42.65;30.67;;;;;;;;;;20883027;28;20419;-72
2021/06/08 20:20:24;;;;;;;41.08;30.17;;;;;;;;;;20884884;28;20045;-69
2021/06/08 20:30:26;;;;;;;45.15;30.30;;;;;;;;;;20883302;28;20069;-71
2021/06/08 20:40:27;;;;;;;33.13;24.45;;;;;;;;;;20883880;28;20049;-69
2021/06/08 20:50:29;;;;;;;42.03;29.73;;;;;;;;;;20882823;28;20052;-69
2021/06/08 21:00:31;;;;;;;38.60;28.60;;;;;;;;;;20833337;28;20095;-70
2021/06/08 21:10:32;;;;;;;40.75;29.08;;;;;;;;;;20826552;28;20476;-69
2021/06/08 21:20:34;;;;;;;39.90;30.27;;;;;;;;;;20825247;28;20053;-69
2021/06/08 21:30:36;;;;;;;45.95;32.42;;;;;;;;;;20824183;28;20041;-70
2021/06/08 21:40:38;;;;;;;44.85;32.55;;;;;;;;;;20824222;28;20045;-70
2021/06/08 21:50:40;;;;;;;39.28;28.80;;;;;;;;;;20824214;28;20050;-71
2021/06/08 22:00:41;;;;;;;38.78;28.30;;;;;;;;;;20822371;28;20045;-70
2021/06/08 22:10:43;;;;;;;39.88;28.92;;;;;;;;;;20824983;28;20045;-70
2021/06/08 22:20:46;;;;;;;36.72;27.77;;;;;;;;;;20815436;28;20045;-71
2021/06/08 22:30:47;;;;;;;40.67;28.65;;;;;;;;;;20813605;28;20510;-70
2021/06/08 22:40:48;;;;;;;41.15;30.85;;;;;;;;;;20814518;28;20644;-70
2021/06/08 22:50:50;;;;;;;38.70;28.85;;;;;;;;;;20816848;28;20041;-70
2021/06/08 23:00:52;;;;;;;43.58;29.40;;;;;;;;;;20808050;28;20053;-70
2021/06/08 23:10:55;;;;;;;46.10;32.65;;;;;;;;;;20813516;28;20041;-69
2021/06/08 23:20:56;;;;;;;47.47;31.20;;;;;;;;;;20811343;28;20056;-68
2021/06/08 23:30:58;;;;;;;47.85;31.35;;;;;;;;;;20810918;28;20050;-68
2021/06/08 23:40:59;;;;;;;39.70;28.75;;;;;;;;;;20811022;28;20057;-68
2021/06/08 23:51:01;;;;;;;47.10;33.28;;;;;;;;;;20810694;28;20487;-68
